createdAt,value
2022-12-06T00:03:25.350Z,12
2022-12-06T00:09:44.141Z,11
2022-12-06T00:15:54.770Z,12
2022-12-06T00:22:05.438Z,11
2022-12-06T00:28:16.121Z,11
2022-12-06T00:34:26.780Z,12
2022-12-06T00:40:37.438Z,12
2022-12-06T00:46:48.122Z,12
2022-12-06T00:52:58.782Z,11
2022-12-06T00:59:09.437Z,11
2022-12-06T01:05:11.920Z,12
2022-12-06T01:12:36.735Z,12
2022-12-06T01:18:47.364Z,12
2022-12-06T01:24:58.061Z,11
2022-12-06T01:31:08.758Z,11
2022-12-06T01:37:35.743Z,11
2022-12-06T01:43:46.461Z,10
2022-12-06T01:49:57.264Z,10
2022-12-06T01:56:07.758Z,10
2022-12-06T02:03:24.400Z,9
2022-12-06T02:09:35.011Z,11
2022-12-06T02:15:45.669Z,10
2022-12-06T02:21:56.381Z,10
2022-12-06T02:28:07.004Z,9
2022-12-06T02:34:17.694Z,11
2022-12-06T02:40:28.375Z,10
2022-12-06T02:46:39.071Z,10
2022-12-06T02:52:49.927Z,9
2022-12-06T02:59:00.361Z,11
2022-12-06T03:06:16.945Z,10
2022-12-06T03:12:27.615Z,9
2022-12-06T03:18:38.328Z,9
2022-12-06T03:24:48.953Z,9
2022-12-06T03:30:59.709Z,9
2022-12-06T03:37:10.295Z,9
2022-12-06T03:43:20.927Z,10
2022-12-06T03:49:31.594Z,10
2022-12-06T03:55:42.289Z,14
2022-12-06T04:01:52.959Z,11
2022-12-06T04:07:55.586Z,9
2022-12-06T04:13:08.359Z,10
2022-12-06T04:18:13.048Z,10
2022-12-06T04:24:23.726Z,10
2022-12-06T04:30:34.410Z,9
2022-12-06T04:36:45.047Z,10
2022-12-06T04:42:55.743Z,9
2022-12-06T04:49:06.376Z,9
2022-12-06T04:55:17.019Z,9
2022-12-06T05:01:27.701Z,9
2022-12-06T05:07:30.221Z,8
2022-12-06T05:13:40.818Z,9
2022-12-06T05:19:51.492Z,9
2022-12-06T05:26:02.207Z,10
2022-12-06T05:32:12.835Z,9
2022-12-06T05:38:23.487Z,10
2022-12-06T05:44:34.160Z,10
2022-12-06T05:50:44.826Z,9
2022-12-06T05:56:55.495Z,10
2022-12-06T06:03:06.308Z,9
2022-12-06T06:09:08.630Z,9
2022-12-06T06:15:19.299Z,11
2022-12-06T06:21:29.963Z,12
2022-12-06T06:27:40.609Z,11
2022-12-06T06:33:51.288Z,13
2022-12-06T06:39:04.266Z,14
2022-12-06T06:45:14.859Z,12
2022-12-06T06:51:25.546Z,14
2022-12-06T06:57:36.218Z,13
2022-12-06T07:03:46.881Z,13
2022-12-06T07:09:49.332Z,10
2022-12-06T07:16:00.037Z,12
2022-12-06T07:22:10.681Z,12
2022-12-06T07:28:21.335Z,13
2022-12-06T07:34:32.034Z,17
2022-12-06T07:41:05.380Z,13
2022-12-06T07:46:53.321Z,15
2022-12-06T07:53:04.034Z,16
2022-12-06T07:59:14.677Z,13
2022-12-06T08:05:25.318Z,13
2022-12-06T08:11:36.034Z,15
2022-12-06T08:17:38.468Z,16
2022-12-06T08:23:49.127Z,16
2022-12-06T08:28:53.901Z,14
2022-12-06T08:35:04.522Z,14
2022-12-06T08:41:15.192Z,17
2022-12-06T08:47:25.868Z,15
2022-12-06T08:53:36.524Z,16
2022-12-06T08:59:47.170Z,16
2022-12-06T09:05:58.023Z,17
2022-12-06T09:12:24.879Z,13
2022-12-06T09:18:35.579Z,14
2022-12-06T09:24:38.056Z,14
2022-12-06T09:30:48.766Z,14
2022-12-06T09:36:59.370Z,15
2022-12-06T09:43:10.075Z,13
2022-12-06T09:49:20.676Z,14
2022-12-06T09:55:31.343Z,14
2022-12-06T10:01:42.145Z,15
2022-12-06T10:07:52.780Z,13
2022-12-06T10:14:03.348Z,16
2022-12-06T10:20:05.841Z,18
2022-12-06T10:26:16.481Z,19
2022-12-06T10:32:27.160Z,18
2022-12-06T10:38:37.829Z,17
2022-12-06T10:44:48.484Z,19
2022-12-06T10:50:59.156Z,20
2022-12-06T10:57:09.839Z,18
2022-12-06T11:03:20.478Z,17
2022-12-06T11:09:31.114Z,18
2022-12-06T11:15:41.825Z,18
2022-12-06T11:21:44.287Z,17
2022-12-06T11:27:54.948Z,16
2022-12-06T11:34:05.628Z,15
2022-12-06T11:39:18.546Z,14
2022-12-06T11:45:29.204Z,11
2022-12-06T11:51:39.871Z,15
2022-12-06T11:57:50.543Z,14
2022-12-06T12:04:01.207Z,15
2022-12-06T12:10:11.896Z,16
2022-12-06T12:16:22.583Z,17
2022-12-06T12:22:24.995Z,17
2022-12-06T12:28:35.697Z,17
2022-12-06T12:34:54.498Z,17
2022-12-06T12:41:05.160Z,18
2022-12-06T12:47:15.861Z,18
2022-12-06T12:53:26.519Z,17
2022-12-06T12:59:37.199Z,19
2022-12-06T13:05:48.127Z,20
2022-12-06T13:11:58.502Z,19
2022-12-06T13:18:09.151Z,19
2022-12-06T13:24:11.673Z,18
2022-12-06T13:30:22.450Z,20
2022-12-06T13:36:32.995Z,19
2022-12-06T13:42:43.699Z,20
2022-12-06T13:48:54.314Z,19
2022-12-06T13:55:04.973Z,20
2022-12-06T14:01:15.717Z,20
2022-12-06T14:07:42.713Z,20
2022-12-06T14:13:53.325Z,19
2022-12-06T14:21:09.984Z,18
2022-12-06T14:27:20.628Z,18
2022-12-06T14:33:31.270Z,18
2022-12-06T14:39:41.961Z,16
2022-12-06T14:45:52.709Z,14
2022-12-06T14:53:17.417Z,11
2022-12-06T15:00:10.832Z,10
2022-12-06T15:05:38.734Z,11
2022-12-06T15:11:49.396Z,9
2022-12-06T15:18:00.111Z,10
2022-12-06T15:24:02.536Z,10
2022-12-06T15:30:13.213Z,9
2022-12-06T15:36:23.919Z,8
2022-12-06T15:42:34.533Z,9
2022-12-06T15:48:45.217Z,8
2022-12-06T15:54:56.063Z,9
2022-12-06T16:01:06.546Z,9
2022-12-06T16:07:17.206Z,8
2022-12-06T16:13:27.889Z,9
2022-12-06T16:19:38.526Z,7
2022-12-06T16:25:41.004Z,8
2022-12-06T16:31:51.782Z,6
2022-12-06T16:38:18.770Z,6
2022-12-06T16:43:23.447Z,7
2022-12-06T16:49:49.753Z,7
2022-12-06T16:55:44.781Z,7
2022-12-06T17:01:55.437Z,8
2022-12-06T17:08:06.273Z,7
2022-12-06T17:14:16.777Z,7
2022-12-06T17:20:27.462Z,7
2022-12-06T17:26:29.936Z,7
2022-12-06T17:32:40.576Z,7
2022-12-06T17:38:51.228Z,7
2022-12-06T17:45:02.615Z,6
2022-12-06T17:51:12.549Z,8
2022-12-06T17:57:23.256Z,7
2022-12-06T18:03:33.975Z,9
2022-12-06T18:09:44.581Z,10
2022-12-06T18:15:55.242Z,10
2022-12-06T18:23:11.865Z,12
2022-12-06T18:29:22.520Z,12
2022-12-06T18:35:33.153Z,10
2022-12-06T18:41:43.925Z,11
2022-12-06T18:47:54.499Z,12
2022-12-06T18:54:05.288Z,11
2022-12-06T19:00:15.878Z,12
2022-12-06T19:06:26.656Z,12
2022-12-06T19:11:39.423Z,13
2022-12-06T19:17:50.091Z,12
2022-12-06T19:23:52.555Z,11
2022-12-06T19:30:03.708Z,12
2022-12-06T19:36:13.939Z,13
2022-12-06T19:42:24.556Z,11
2022-12-06T19:48:35.237Z,12
2022-12-06T19:54:45.896Z,11
2022-12-06T20:00:56.555Z,11
2022-12-06T20:07:07.216Z,12
2022-12-06T20:13:17.890Z,13
2022-12-06T20:19:28.539Z,13
2022-12-06T20:26:45.172Z,13
2022-12-06T20:32:55.834Z,14
2022-12-06T20:39:06.474Z,13
2022-12-06T20:45:17.141Z,14
2022-12-06T20:51:36.026Z,14
2022-12-06T20:57:46.673Z,14
2022-12-06T21:03:57.335Z,14
2022-12-06T21:10:08.020Z,14
2022-12-06T21:16:18.760Z,14
2022-12-06T21:22:29.337Z,15
2022-12-06T21:28:31.830Z,14
2022-12-06T21:34:46.446Z,14
2022-12-06T21:39:55.401Z,14
2022-12-06T21:46:06.109Z,14
2022-12-06T21:52:16.695Z,14
2022-12-06T21:58:27.408Z,14
2022-12-06T22:04:38.058Z,15
2022-12-06T22:10:48.751Z,13
2022-12-06T22:18:13.497Z,15
2022-12-06T22:25:30.128Z,14
2022-12-06T22:31:40.808Z,14
2022-12-06T22:37:51.436Z,13
2022-12-06T22:44:02.107Z,13
2022-12-06T22:50:12.777Z,14
2022-12-06T22:56:23.431Z,15
2022-12-06T23:03:48.380Z,14
2022-12-06T23:09:59.286Z,14
2022-12-06T23:16:09.582Z,15
2022-12-06T23:22:20.229Z,15
2022-12-06T23:28:22.690Z,17
2022-12-06T23:34:33.358Z,17
2022-12-06T23:40:44.065Z,15
2022-12-06T23:46:54.783Z,17
2022-12-06T23:53:05.355Z,17
2022-12-06T23:59:16.035Z,18
